Time;durP1;ratioP1;P1;durP2;ratioP2;P2;SDS_P1;SDS_P2;PMS_P1;PMS_P2;Temp;Humidity;BMP_temperature;BMP_pressure;BME280_temperature;BME280_humidity;BME280_pressure;Samples;Min_cycle;Max_cycle;Signal;HPM_P1;HPM_P2
2021/10/15 03:14:26;;;;;;;;;;;;;;;5.95;100.00;99909.72;5928303;22;20291;-80
2021/10/15 03:16:51;;;;;;;;;;;;;;;5.90;100.00;99912.44;4993428;28;19933;-80
2021/10/15 03:19:17;;;;;;;;;;;;;;;5.93;100.00;99912.38;4993828;28;20020;-80
2021/10/15 03:21:42;;;;;;;;;;;;;;;5.93;100.00;99909.75;4993733;28;19925;-79
2021/10/15 03:24:08;;;;;;;;;;;;;;;6.00;100.00;99907.91;4993764;28;19918;-79
2021/10/15 03:26:33;;;;;;;;;;;;;;;6.05;100.00;99905.13;4993773;28;19925;-79
2021/10/15 03:28:58;;;;;;;;;;;;;;;6.05;100.00;99906.03;4992203;28;19922;-80
2021/10/15 03:31:23;;;;;;;;;;;;;;;6.06;100.00;99907.75;4993547;28;19965;-79
2021/10/15 03:33:49;;;;;;;;;;;;;;;6.04;100.00;99899.03;4993582;28;19918;-79
2021/10/15 03:36:14;;;;;;;;;;;;;;;6.08;100.00;99905.06;4993563;28;19917;-81
2021/10/15 03:38:39;;;;;;;;;;;;;;;6.10;100.00;99898.03;4993532;28;19972;-81
2021/10/15 03:41:04;;;;;;;;;;;;;;;6.11;100.00;99899.75;4993416;28;20431;-81
2021/10/15 03:43:30;;;;;;;;;;;;;;;6.11;100.00;99905.91;4991274;28;19924;-81
2021/10/15 03:45:55;;;;;;;;;;;;;;;6.10;100.00;99900.66;4975809;28;20320;-79
2021/10/15 03:48:20;;;;;;;;;;;;;;;6.16;100.00;99898.75;4993368;28;19918;-79
2021/10/15 03:50:45;;;;;;;;;;;;;;;6.14;100.00;99900.56;4993166;28;19961;-80
2021/10/15 03:53:11;;;;;;;;;;;;;;;4.93;100.00;99902.97;4993399;28;19918;-79
2021/10/15 03:55:36;;;;;;;;;;;;;;;4.05;100.00;99905.25;4993199;28;19918;-80
2021/10/15 03:58:01;;;;;;;;;;;;;;;3.72;100.00;99896.09;4993126;28;19922;-80
2021/10/15 04:00:26;;;;;;;;;;;;;;;3.56;100.00;99898.06;4991698;28;19926;-80
2021/10/15 04:02:52;;;;;;;;;;;;;;;3.54;100.00;99897.19;4993079;28;19921;-80
2021/10/15 04:05:17;;;;;;;;;;;;;;;3.42;100.00;99888.59;4993072;28;20392;-79
2021/10/15 04:07:43;;;;;;;;;;;;;;;3.66;100.00;99906.66;4992996;28;20316;-79
2021/10/15 04:10:09;;;;;;;;;;;;;;;3.63;100.00;99911.03;4992978;28;19929;-80
2021/10/15 04:12:35;;;;;;;;;;;;;;;3.45;100.00;99913.91;4992891;28;19917;-80
2021/10/15 04:15:00;;;;;;;;;;;;;;;3.39;100.00;99911.34;4988855;28;19918;-79
2021/10/15 04:17:26;;;;;;;;;;;;;;;3.28;100.00;99906.22;4973537;28;19922;-80
2021/10/15 04:19:51;;;;;;;;;;;;;;;3.18;100.00;99895.00;4973258;28;19929;-80
2021/10/15 04:22:16;;;;;;;;;;;;;;;3.18;100.00;99889.75;4973453;28;19922;-80
2021/10/15 04:24:41;;;;;;;;;;;;;;;3.10;100.00;99888.97;4973403;28;19965;-80
2021/10/15 04:27:07;;;;;;;;;;;;;;;3.06;100.00;99889.88;4973290;28;19922;-80
2021/10/15 04:29:32;;;;;;;;;;;;;;;3.06;100.00;99892.50;4971881;28;19918;-79
2021/10/15 04:31:58;;;;;;;;;;;;;;;2.93;100.00;99899.59;4973199;28;19922;-80
2021/10/15 04:34:23;;;;;;;;;;;;;;;2.90;100.00;99902.25;4973509;28;19956;-80
2021/10/15 04:36:48;;;;;;;;;;;;;;;2.87;100.00;99899.66;4973135;28;19918;-80
2021/10/15 04:39:13;;;;;;;;;;;;;;;2.77;100.00;99904.13;4973194;28;19949;-80
2021/10/15 04:41:39;;;;;;;;;;;;;;;2.76;100.00;99894.56;4955879;28;19918;-80
2021/10/15 04:44:04;;;;;;;;;;;;;;;2.69;100.00;99875.41;4971664;28;19918;-80
2021/10/15 04:46:29;;;;;;;;;;;;;;;2.65;100.00;99878.94;4973198;28;19918;-80
2021/10/15 04:48:55;;;;;;;;;;;;;;;2.63;100.00;99879.81;4973156;28;19918;-80
2021/10/15 04:51:20;;;;;;;;;;;;;;;2.51;100.00;99886.03;4973180;28;20337;-79
2021/10/15 04:53:45;;;;;;;;;;;;;;;2.51;100.00;99880.81;4955767;28;20277;-79
2021/10/15 04:56:11;;;;;;;;;;;;;;;2.46;100.00;99880.00;4976495;28;19926;-79
2021/10/15 07:40:34;;;;;;;;;;;;;;;3.28;100.00;99891.38;4991598;28;20076;-78
2021/10/15 07:42:59;;;;;;;;;;;;;;;3.25;100.00;99901.03;4992649;28;20008;-78
2021/10/15 07:45:26;;;;;;;;;;;;;;;3.30;100.00;99900.97;4992661;28;19921;-78
2021/10/15 07:47:52;;;;;;;;;;;;;;;3.33;100.00;99898.31;4989519;28;19929;-78
2021/10/15 07:50:17;;;;;;;;;;;;;;;3.36;100.00;99899.16;4991852;28;19918;-78
2021/10/15 07:52:42;;;;;;;;;;;;;;;3.38;100.00;99897.41;4989857;28;19922;-80
2021/10/15 07:55:09;;;;;;;;;;;;;;;3.41;100.00;99897.34;4966746;28;19932;-80
2021/10/15 07:57:34;;;;;;;;;;;;;;;3.44;100.00;99905.16;4992256;28;19967;-79
2021/10/15 07:59:59;;;;;;;;;;;;;;;3.44;100.00;99902.53;4992272;28;19969;-78
2021/10/15 08:02:26;;;;;;;;;;;;;;;3.47;100.00;99895.56;4992337;28;19926;-81
2021/10/15 08:04:51;;;;;;;;;;;;;;;3.53;100.00;99901.56;4991274;28;20016;-79
2021/10/15 08:07:17;;;;;;;;;;;;;;;3.50;100.00;99904.22;4990919;28;20001;-79
2021/10/15 08:09:42;;;;;;;;;;;;;;;3.55;100.00;99910.28;4992074;28;19929;-80
2021/10/15 08:12:07;;;;;;;;;;;;;;;3.56;100.00;99911.16;4992145;28;20384;-79
2021/10/15 08:14:33;;;;;;;;;;;;;;;3.58;100.00;99904.13;4992084;28;20320;-78
2021/10/15 08:16:58;;;;;;;;;;;;;;;3.66;100.00;99897.03;4991992;28;19922;-78
2021/10/15 08:19:23;;;;;;;;;;;;;;;3.66;100.00;99904.91;4992075;28;19918;-78
2021/10/15 08:21:48;;;;;;;;;;;;;;;3.72;100.00;99904.84;4991853;28;19917;-78
2021/10/15 08:24:14;;;;;;;;;;;;;;;3.68;100.00;99903.13;4990635;28;20300;-78
2021/10/15 08:26:41;;;;;;;;;;;;;;;3.74;100.00;99889.09;4992031;28;19917;-78
2021/10/15 08:29:06;;;;;;;;;;;;;;;3.72;100.00;99896.97;4991390;28;19925;-78
2021/10/15 08:31:31;;;;;;;;;;;;;;;3.82;100.00;99901.19;4991692;28;19918;-79
2021/10/15 08:33:57;;;;;;;;;;;;;;;3.89;100.00;99901.09;4991833;28;20341;-81
2021/10/15 08:36:22;;;;;;;;;;;;;;;3.89;100.00;99893.25;4991791;28;19914;-78
2021/10/15 08:38:48;;;;;;;;;;;;;;;3.92;100.00;99906.31;4926777;28;1814838;-78
2021/10/15 08:41:17;;;;;;;;;;;;;;;3.91;100.00;99896.69;4992680;28;20011;-79
2021/10/15 08:43:43;;;;;;;;;;;;;;;3.96;100.00;99902.78;4991535;28;19918;-80
2021/10/15 08:46:08;;;;;;;;;;;;;;;4.00;100.00;99896.59;4992476;28;19926;-78
2021/10/15 08:48:37;;;;;;;;;;;;;;;4.00;100.00;99894.84;4992441;28;19924;-81
2021/10/15 08:51:03;;;;;;;;;;;;;;;4.03;100.00;99891.28;4992366;28;19918;-79
2021/10/15 08:53:28;;;;;;;;;;;;;;;3.99;100.00;99892.25;4991042;28;19922;-81
2021/10/15 08:55:53;;;;;;;;;;;;;;;4.04;100.00;99890.41;4991988;28;19964;-80
2021/10/15 08:58:19;;;;;;;;;;;;;;;4.06;100.00;99898.25;4992374;28;19925;-79
2021/10/15 09:00:44;;;;;;;;;;;;;;;4.06;100.00;99895.66;4991327;28;20316;-78
2021/10/15 09:03:12;;;;;;;;;;;;;;;4.12;100.00;99887.69;4992308;28;19944;-79
2021/10/15 09:05:38;;;;;;;;;;;;;;;4.10;100.00;99899.94;4991661;28;19928;-79
2021/10/15 09:08:04;;;;;;;;;;;;;;;4.11;100.00;99893.81;4990853;28;19917;-78
2021/10/15 09:10:32;;;;;;;;;;;;;;;4.21;100.00;99897.16;4992251;28;19929;-80
2021/10/15 09:13:07;;;;;;;;;;;;;;;4.24;100.00;99910.22;4991837;28;19929;-79
2021/10/15 09:15:35;;;;;;;;;;;;;;;4.28;100.00;99911.94;4992252;28;19918;-79
2021/10/15 09:18:31;;;;;;;;;;;;;;;4.31;100.00;99910.13;4992106;28;19921;-78
2021/10/15 09:20:56;;;;;;;;;;;;;;;4.33;100.00;99926.69;4978655;28;20280;-80
2021/10/15 09:23:41;;;;;;;;;;;;;;;4.36;100.00;99928.41;4990896;28;20016;-79
2021/10/15 09:26:07;;;;;;;;;;;;;;;4.38;100.00;99913.50;4992100;28;19965;-78
2021/10/15 09:28:38;;;;;;;;;;;;;;;4.41;100.00;99918.72;4992048;28;20322;-79
2021/10/15 09:31:04;;;;;;;;;;;;;;;4.47;100.00;99917.75;4991884;28;19921;-80
2021/10/15 09:33:29;;;;;;;;;;;;;;;4.48;100.00;99917.75;4992209;28;20513;-78
2021/10/15 09:36:04;;;;;;;;;;;;;;;4.54;100.00;99924.63;4992058;28;19917;-80
2021/10/15 09:38:30;;;;;;;;;;;;;;;4.56;100.00;99914.97;4990127;28;19922;-79
2021/10/15 09:40:55;;;;;;;;;;;;;;;4.55;100.00;99916.72;4992285;28;19949;-79
2021/10/15 09:43:31;;;;;;;;;;;;;;;4.59;100.00;99911.44;4995236;28;19961;-79
2021/10/15 09:45:56;;;;;;;;;;;;;;;4.59;100.00;99907.03;4995282;28;20005;-78
2021/10/15 09:48:26;;;;;;;;;;;;;;;4.64;100.00;99909.59;4995526;28;20444;-80
2021/10/15 09:51:15;;;;;;;;;;;;;;;4.63;100.00;99914.00;4994891;28;19922;-80
2021/10/15 09:53:41;;;;;;;;;;;;;;;4.70;100.00;99906.88;4993364;28;19964;-79
2021/10/15 09:56:06;;;;;;;;;;;;;;;4.68;100.00;99904.28;4995360;28;19914;-79
2021/10/15 09:58:32;;;;;;;;;;;;;;;4.75;100.00;99912.91;4995330;28;19929;-79
2021/10/15 10:00:57;;;;;;;;;;;;;;;4.76;100.00;99911.16;4995204;28;19931;-78
2021/10/15 10:03:24;;;;;;;;;;;;;;;4.80;100.00;99911.06;4977744;28;19957;-80
2021/10/15 10:05:50;;;;;;;;;;;;;;;4.82;100.00;99911.94;4994231;28;19917;-80
2021/10/15 10:08:15;;;;;;;;;;;;;;;4.85;100.00;99913.59;4993848;28;19918;-81
2021/10/15 10:10:41;;;;;;;;;;;;;;;4.88;100.00;99903.06;4994968;28;19918;-79
2021/10/15 10:13:07;;;;;;;;;;;;;;;4.88;100.00;99908.31;4995017;28;19925;-79
2021/10/15 10:15:34;;;;;;;;;;;;;;;4.94;100.00;99904.72;4994956;28;19945;-78
2021/10/15 10:20:45;;;;;;;;;;;;;;;4.98;100.00;99907.28;4994932;28;20021;-79
2021/10/15 10:23:29;;;;;;;;;;;;;;;4.99;100.00;99901.09;4992587;28;19918;-79
2021/10/15 10:25:58;;;;;;;;;;;;;;;5.03;100.00;99901.94;4994685;28;19941;-80
2021/10/15 10:28:24;;;;;;;;;;;;;;;5.01;100.00;99903.69;4994238;28;19922;-80
2021/10/15 10:30:51;;;;;;;;;;;;;;;5.08;100.00;99900.09;4994445;28;19972;-80
2021/10/15 10:33:17;;;;;;;;;;;;;;;5.06;100.00;99894.00;4994626;28;20339;-79
2021/10/15 10:35:43;;;;;;;;;;;;;;;5.09;100.00;99878.19;4994703;28;19917;-79
2021/10/15 10:38:20;;;;;;;;;;;;;;;5.11;100.00;99886.91;4993005;28;19921;-79
2021/10/15 10:41:01;;;;;;;;;;;;;;;5.13;100.00;99882.47;4994063;28;19929;-79
2021/10/15 10:43:26;;;;;;;;;;;;;;;5.15;100.00;99880.66;4994449;28;20371;-79
2021/10/15 10:46:24;;;;;;;;;;;;;;;5.19;100.00;99873.63;4994190;28;19925;-79
2021/10/15 10:48:49;;;;;;;;;;;;;;;5.23;100.00;99872.66;4961237;28;19964;-79
2021/10/15 10:51:19;;;;;;;;;;;;;;;5.22;100.00;99879.66;4994466;28;19926;-80
2021/10/15 10:53:59;;;;;;;;;;;;;;;5.27;100.00;99869.94;4992622;28;19968;-79
2021/10/15 10:56:46;;;;;;;;;;;;;;;5.31;100.00;99875.13;4993398;28;19922;-78
2021/10/15 10:59:21;;;;;;;;;;;;;;;5.30;100.00;99878.63;4993886;28;20385;-79
2021/10/15 11:01:50;;;;;;;;;;;;;;;5.32;100.00;99867.22;4993621;28;19922;-78
2021/10/15 11:04:25;;;;;;;;;;;;;;;5.33;100.00;99870.69;4976081;28;19922;-78
2021/10/15 11:06:59;;;;;;;;;;;;;;;5.34;100.00;99867.19;4993333;28;19924;-79
2021/10/15 11:09:28;;;;;;;;;;;;;;;5.35;100.00;99867.16;4992752;28;19953;-78
2021/10/15 11:11:54;;;;;;;;;;;;;;;5.35;100.00;99859.28;4993950;28;19918;-79
2021/10/15 11:14:20;;;;;;;;;;;;;;;5.40;100.00;99857.41;4993804;28;20464;-79
2021/10/15 11:16:45;;;;;;;;;;;;;;;5.40;100.00;99859.19;4993878;28;19921;-79
2021/10/15 11:19:16;;;;;;;;;;;;;;;5.43;100.00;99859.13;4993560;28;19918;-79
2021/10/15 11:21:42;;;;;;;;;;;;;;;5.44;100.00;99855.56;4993752;28;19918;-78
2021/10/15 11:24:11;;;;;;;;;;;;;;;5.46;100.00;99856.44;4992370;28;19929;-78
2021/10/15 11:26:36;;;;;;;;;;;;;;;5.51;100.00;99856.34;4993613;28;19949;-78
2021/10/15 11:29:01;;;;;;;;;;;;;;;5.53;100.00;99854.53;4993535;28;20385;-78
2021/10/15 11:31:27;;;;;;;;;;;;;;;5.51;100.00;99851.09;4993540;28;19964;-78
2021/10/15 11:33:52;;;;;;;;;;;;;;;5.55;100.00;99858.88;4993250;28;19929;-78
2021/10/15 11:36:19;;;;;;;;;;;;;;;5.57;100.00;99856.22;4993520;28;20372;-79
2021/10/15 11:38:44;;;;;;;;;;;;;;;5.58;100.00;99844.78;4991898;28;20300;-78
2021/10/15 11:41:10;;;;;;;;;;;;;;;5.61;100.00;99848.19;4975848;28;20520;-79
2021/10/15 11:43:36;;;;;;;;;;;;;;;5.61;100.00;99840.31;4993368;28;19922;-78
2021/10/15 11:46:15;;;;;;;;;;;;;;;5.64;100.00;99842.03;4993154;28;19922;-79
2021/10/15 11:48:42;;;;;;;;;;;;;;;5.63;100.00;99835.03;4992726;28;20303;-79
2021/10/15 11:51:09;;;;;;;;;;;;;;;5.64;100.00;99837.63;4992125;28;20381;-80
2021/10/15 11:53:45;;;;;;;;;;;;;;;5.66;100.00;99834.09;4991814;28;19918;-78
2021/10/15 11:56:14;;;;;;;;;;;;;;;5.68;100.00;99829.66;4991732;28;19924;-78
2021/10/15 11:58:44;;;;;;;;;;;;;;;5.66;100.00;99826.22;4992544;28;19922;-79
2021/10/15 12:01:16;;;;;;;;;;;;;;;5.67;100.00;99825.31;4992722;28;19918;-79
2021/10/15 12:03:49;;;;;;;;;;;;;;;5.70;100.00;99827.88;4992293;28;19918;-78
2021/10/15 12:06:22;;;;;;;;;;;;;;;5.73;100.00;99825.19;4992394;28;19917;-80
2021/10/15 12:08:48;;;;;;;;;;;;;;;5.73;100.00;99826.06;4991597;28;19961;-80
2021/10/15 12:11:25;;;;;;;;;;;;;;;5.75;100.00;99823.38;4992754;28;19961;-78
2021/10/15 12:13:50;;;;;;;;;;;;;;;5.75;100.00;99821.63;4992223;28;19922;-80
2021/10/15 12:16:20;;;;;;;;;;;;;;;5.77;100.00;99821.59;4992741;28;19920;-78
2021/10/15 12:18:46;;;;;;;;;;;;;;;5.79;100.00;99822.41;4992776;28;20019;-78
2021/10/15 12:21:12;;;;;;;;;;;;;;;5.81;100.00;99823.25;4975256;28;20333;-80
2021/10/15 12:23:52;;;;;;;;;;;;;;;5.82;100.00;99814.44;4991257;28;19965;-78
2021/10/15 12:26:18;;;;;;;;;;;;;;;5.86;100.00;99812.63;4992398;28;20008;-79
2021/10/15 12:28:44;;;;;;;;;;;;;;;5.89;100.00;99817.78;4992661;28;19914;-77
2021/10/15 12:31:22;;;;;;;;;;;;;;;5.90;100.00;99819.53;4992479;28;19918;-79
2021/10/15 12:34:05;;;;;;;;;;;;;;;5.89;100.00;99816.06;4992556;28;20000;-78
2021/10/15 12:36:31;;;;;;;;;;;;;;;5.93;100.00;99814.22;4992490;28;20008;-78
2021/10/15 12:39:14;;;;;;;;;;;;;;;5.91;100.00;99808.97;4991049;28;20021;-77
2021/10/15 12:41:39;;;;;;;;;;;;;;;5.94;100.00;99803.66;4992578;28;19918;-78
2021/10/15 12:44:21;;;;;;;;;;;;;;;5.99;100.00;99806.22;4992358;28;19995;-80
2021/10/15 12:46:53;;;;;;;;;;;;;;;6.01;100.00;99807.03;4992486;28;19921;-78
2021/10/15 12:49:18;;;;;;;;;;;;;;;5.98;100.00;99805.34;4992662;28;20527;-78
2021/10/15 12:51:44;;;;;;;;;;;;;;;6.00;100.00;99797.44;4992624;28;19929;-78
2021/10/15 12:54:09;;;;;;;;;;;;;;;6.09;100.00;99796.31;4990966;28;20258;-78
2021/10/15 12:56:36;;;;;;;;;;;;;;;6.13;100.00;99798.84;4992281;28;19976;-80
2021/10/15 12:59:01;;;;;;;;;;;;;;;6.17;100.00;99795.25;4992271;28;20423;-78
2021/10/15 13:01:30;;;;;;;;;;;;;;;6.17;100.00;99799.63;4992437;28;19926;-79
2021/10/15 13:03:56;;;;;;;;;;;;;;;6.17;100.00;99799.63;4991975;28;19921;-78
2021/10/15 13:06:22;;;;;;;;;;;;;;;6.11;100.00;99794.50;4991299;28;19928;-78
2021/10/15 13:08:49;;;;;;;;;;;;;;;6.03;100.00;99788.56;4991013;28;20289;-79
2021/10/15 13:11:18;;;;;;;;;;;;;;;5.87;100.00;99791.56;4991489;28;19922;-79
2021/10/15 13:13:43;;;;;;;;;;;;;;;5.73;100.00;99793.66;4991567;28;20427;-78
2021/10/15 13:16:08;;;;;;;;;;;;;;;5.51;100.00;99790.63;4993903;28;19969;-79
2021/10/15 13:18:33;;;;;;;;;;;;;;;5.25;100.00;99792.91;4996265;28;20424;-79
2021/10/15 13:20:59;;;;;;;;;;;;;;;5.18;100.00;99799.19;4995837;28;19917;-78
2021/10/15 13:23:24;;;;;;;;;;;;;;;5.17;100.00;99805.34;4994615;28;19921;-80
2021/10/15 13:25:49;;;;;;;;;;;;;;;5.17;100.00;99810.59;4995773;28;19918;-78
2021/10/15 13:28:14;;;;;;;;;;;;;;;5.36;100.00;99815.44;4995794;28;19972;-81
2021/10/15 13:30:40;;;;;;;;;;;;;;;5.44;100.00;99813.53;4995535;28;19968;-78
2021/10/15 13:33:08;;;;;;;;;;;;;;;5.60;100.00;99801.81;4995661;28;20493;-80
2021/10/15 13:35:33;;;;;;;;;;;;;;;5.77;100.00;99801.41;4995676;28;19918;-78
2021/10/15 13:38:07;;;;;;;;;;;;;;;5.92;100.00;99800.19;4994292;28;20395;-79
2021/10/15 13:40:40;;;;;;;;;;;;;;;6.05;100.00;99792.03;4995526;28;20336;-80
2021/10/15 13:43:16;;;;;;;;;;;;;;;6.12;100.00;99801.50;4994653;28;19918;-78
2021/10/15 13:50:50;;;;;;;;;;;;;;;6.28;100.00;99802.00;4995427;28;19924;-78
2021/10/15 13:53:15;;;;;;;;;;;;;;;6.29;100.00;99801.97;4993465;28;19918;-78
2021/10/15 13:58:21;;;;;;;;;;;;;;;6.33;100.00;99784.31;4994272;28;19964;-79
2021/10/15 14:00:48;;;;;;;;;;;;;;;6.36;100.00;99779.84;4969229;28;19984;-80
2021/10/15 14:04:15;;;;;;;;;;;;;;;6.39;100.00;99785.94;4995090;28;20445;-78
2021/10/15 14:06:08;;;;;;;;;;;;;;;6.43;100.00;99791.09;4983635;28;19918;-79
2021/10/15 14:08:34;;;;;;;;;;;;;;;6.45;100.00;99785.78;4993608;28;19941;-78
2021/10/15 14:11:00;;;;;;;;;;;;;;;6.46;100.00;99791.03;4995028;28;19922;-78
2021/10/15 14:13:25;;;;;;;;;;;;;;;6.48;100.00;99786.56;4994782;28;20262;-78
2021/10/15 14:15:50;;;;;;;;;;;;;;;6.51;100.00;99789.13;4994940;28;19922;-80
2021/10/15 14:18:16;;;;;;;;;;;;;;;6.50;100.00;99776.00;4994975;28;19917;-78
2021/10/15 14:20:41;;;;;;;;;;;;;;;6.48;100.00;99776.03;4994890;28;19917;-79
2021/10/15 14:23:07;;;;;;;;;;;;;;;6.53;100.00;99775.91;4993532;28;19980;-78
2021/10/15 14:25:32;;;;;;;;;;;;;;;6.14;100.00;99774.28;4994784;28;20329;-78
2021/10/15 14:27:57;;;;;;;;;;;;;;;4.89;100.00;99774.38;4994089;28;20019;-78
2021/10/15 14:30:23;;;;;;;;;;;;;;;4.24;100.00;99779.06;4994733;28;20381;-79
2021/10/15 14:32:48;;;;;;;;;;;;;;;3.91;100.00;99771.75;4994680;28;19929;-78
2021/10/15 14:35:14;;;;;;;;;;;;;;;3.70;100.00;99772.97;4994493;28;20012;-79
2021/10/15 14:37:39;;;;;;;;;;;;;;;3.62;100.00;99780.03;4993395;28;20404;-80
2021/10/15 14:40:05;;;;;;;;;;;;;;;3.55;100.00;99775.78;4994294;28;20350;-80
2021/10/15 14:42:31;;;;;;;;;;;;;;;3.51;100.00;99776.72;4976941;28;20345;-79
2021/10/15 14:44:56;;;;;;;;;;;;;;;3.38;100.00;99784.75;4994565;28;19920;-80
2021/10/15 14:47:21;;;;;;;;;;;;;;;3.33;100.00;99778.69;4994366;28;19922;-78
2021/10/15 14:49:47;;;;;;;;;;;;;;;3.28;100.00;99789.22;4994287;28;20008;-80
2021/10/15 14:52:12;;;;;;;;;;;;;;;3.22;100.00;99780.59;4993515;28;19921;-79
2021/10/15 14:54:39;;;;;;;;;;;;;;;3.11;100.00;99777.25;4993447;28;19922;-80
2021/10/15 14:57:04;;;;;;;;;;;;;;;3.08;100.00;99784.25;4976391;28;20285;-78
2021/10/15 14:59:29;;;;;;;;;;;;;;;3.04;100.00;99772.06;4994055;28;19921;-79
2021/10/15 15:01:54;;;;;;;;;;;;;;;3.04;100.00;99781.69;4994122;28;20332;-79
2021/10/15 15:04:19;;;;;;;;;;;;;;;2.97;99.45;99780.03;4993934;28;19917;-78
2021/10/15 15:06:45;;;;;;;;;;;;;;;2.98;98.63;99793.09;4993832;28;20520;-79
2021/10/15 15:09:10;;;;;;;;;;;;;;;2.86;98.02;99799.34;4992875;28;20372;-80
2021/10/15 15:11:36;;;;;;;;;;;;;;;2.78;97.36;99801.19;4993883;28;20327;-79
2021/10/15 15:14:01;;;;;;;;;;;;;;;2.73;95.75;99801.22;4994051;28;19918;-79
2021/10/15 15:16:26;;;;;;;;;;;;;;;2.68;95.62;99800.44;4993852;28;19921;-79
2021/10/15 15:18:51;;;;;;;;;;;;;;;2.63;94.71;99796.09;4993859;28;19925;-78
2021/10/15 15:21:17;;;;;;;;;;;;;;;2.51;94.19;99797.13;4993591;28;19918;-78
2021/10/15 15:23:42;;;;;;;;;;;;;;;2.52;94.25;99793.59;4991791;28;19918;-78
2021/10/15 15:26:07;;;;;;;;;;;;;;;2.50;93.87;99803.22;4976229;28;19925;-78
2021/10/15 15:28:33;;;;;;;;;;;;;;;2.47;93.84;99806.75;4992634;28;19925;-80
2021/10/15 15:31:04;;;;;;;;;;;;;;;2.48;93.59;99808.47;4967414;28;20274;-81
2021/10/15 15:33:30;;;;;;;;;;;;;;;2.44;93.27;99813.72;4975581;28;19925;-80
2021/10/15 15:35:58;;;;;;;;;;;;;;;2.39;93.31;99819.00;4993002;28;19948;-80
2021/10/15 15:38:24;;;;;;;;;;;;;;;2.31;92.41;99818.19;4974456;28;19979;-80
2021/10/15 15:40:49;;;;;;;;;;;;;;;2.31;92.31;99821.72;4991930;28;19969;-80
2021/10/15 15:43:14;;;;;;;;;;;;;;;2.24;92.28;99820.00;4991811;28;20381;-80
2021/10/15 15:45:43;;;;;;;;;;;;;;;2.17;91.54;99820.91;4975765;28;19918;-80
2021/10/15 15:48:09;;;;;;;;;;;;;;;2.15;91.15;99822.69;4993021;28;20041;-80
2021/10/15 15:50:36;;;;;;;;;;;;;;;2.19;90.99;99824.41;4967507;28;20017;-79
2021/10/15 15:53:02;;;;;;;;;;;;;;;2.15;90.90;99825.31;4967383;28;19922;-79
2021/10/15 15:55:28;;;;;;;;;;;;;;;2.05;90.33;99818.44;4992557;28;19933;-80
2021/10/15 15:57:53;;;;;;;;;;;;;;;1.97;89.73;99826.31;4992913;28;20318;-81
2021/10/15 16:00:19;;;;;;;;;;;;;;;2.00;90.12;99821.94;4992850;28;20369;-81
2021/10/15 16:02:45;;;;;;;;;;;;;;;1.94;89.27;99827.19;4991670;28;19976;-79
2021/10/15 16:05:11;;;;;;;;;;;;;;;2.09;90.69;99815.78;4992446;28;19961;-80
2021/10/15 16:07:37;;;;;;;;;;;;;;;2.31;92.58;99818.19;4990909;28;20024;-79
2021/10/15 16:10:02;;;;;;;;;;;;;;;2.35;95.29;99823.41;4992537;28;20013;-79
2021/10/15 16:12:27;;;;;;;;;;;;;;;2.60;100.00;99817.94;4992325;28;19929;-79
2021/10/15 16:14:53;;;;;;;;;;;;;;;2.71;100.00;99816.09;4992390;28;19969;-79
2021/10/15 16:17:18;;;;;;;;;;;;;;;2.79;100.00;99820.38;4992375;28;19944;-80
2021/10/15 16:19:43;;;;;;;;;;;;;;;2.86;100.00;99819.44;4967134;28;20416;-79
2021/10/15 16:22:08;;;;;;;;;;;;;;;2.88;100.00;99817.66;4992363;28;19929;-79
2021/10/15 16:24:38;;;;;;;;;;;;;;;2.98;100.00;99819.28;4991449;28;19976;-80
2021/10/15 16:27:03;;;;;;;;;;;;;;;3.06;100.00;99822.69;4992652;28;19917;-80
2021/10/15 16:29:28;;;;;;;;;;;;;;;3.07;100.00;99823.56;4992156;28;20004;-80
2021/10/15 16:31:54;;;;;;;;;;;;;;;3.06;100.00;99825.31;4963729;28;19922;-79
2021/10/15 16:34:20;;;;;;;;;;;;;;;3.10;100.00;99828.75;4966508;28;19968;-80
2021/10/15 16:36:46;;;;;;;;;;;;;;;3.15;100.00;99828.69;4967997;28;19921;-79
2021/10/15 16:39:11;;;;;;;;;;;;;;;3.19;100.00;99827.75;4973926;28;19930;-79
2021/10/15 16:41:37;;;;;;;;;;;;;;;3.16;100.00;99827.78;4992303;28;20021;-79
2021/10/15 16:44:02;;;;;;;;;;;;;;;3.14;100.00;99824.34;4989912;28;19914;-80
2021/10/15 16:46:27;;;;;;;;;;;;;;;3.21;100.00;99820.78;4973108;28;20362;-80
2021/10/15 16:48:53;;;;;;;;;;;;;;;3.18;100.00;99823.44;4972956;28;19914;-80
2021/10/15 16:51:18;;;;;;;;;;;;;;;3.24;100.00;99831.22;4974926;28;20565;-80
2021/10/15 16:53:43;;;;;;;;;;;;;;;3.28;100.00;99830.28;4974861;28;19929;-80
2021/10/15 16:56:08;;;;;;;;;;;;;;;3.29;100.00;99834.63;4957613;28;20392;-80
2021/10/15 16:58:34;;;;;;;;;;;;;;;3.26;100.00;99835.53;4976706;28;19926;-80
2021/10/15 17:00:59;;;;;;;;;;;;;;;3.31;100.00;99830.25;4976721;28;20381;-79
2021/10/15 17:03:24;;;;;;;;;;;;;;;3.30;100.00;99832.88;4975699;28;19973;-80
2021/10/15 17:05:52;;;;;;;;;;;;;;;3.33;100.00;99849.41;4976359;28;20514;-80
2021/10/15 17:08:17;;;;;;;;;;;;;;;3.33;100.00;99846.78;4975483;28;19918;-80
2021/10/15 17:10:42;;;;;;;;;;;;;;;3.33;100.00;99853.78;4976079;28;20850;-80
2021/10/15 17:13:09;;;;;;;;;;;;;;;3.37;100.00;99858.97;4973239;28;20349;-79
2021/10/15 17:15:34;;;;;;;;;;;;;;;3.35;100.00;99859.88;4975288;28;20262;-80
2021/10/15 17:17:59;;;;;;;;;;;;;;;3.39;100.00;99862.44;4976667;28;19918;-80
2021/10/15 17:20:25;;;;;;;;;;;;;;;3.42;100.00;99865.03;4975578;28;19926;-80
2021/10/15 17:22:50;;;;;;;;;;;;;;;3.43;100.00;99873.75;4975193;28;19977;-80
2021/10/15 17:25:15;;;;;;;;;;;;;;;3.39;100.00;99867.69;4975537;28;19922;-81
2021/10/15 17:27:44;;;;;;;;;;;;;;;3.42;100.00;99880.75;4976107;28;19926;-80
2021/10/15 17:30:10;;;;;;;;;;;;;;;3.45;100.00;99869.38;4976330;28;19946;-80
2021/10/15 17:32:36;;;;;;;;;;;;;;;3.46;100.00;99871.09;4975011;28;19930;-80
2021/10/15 17:35:02;;;;;;;;;;;;;;;3.50;100.00;99880.66;4976181;28;20269;-79
2021/10/15 17:37:27;;;;;;;;;;;;;;;3.45;100.00;99875.47;4974961;28;19933;-80
2021/10/15 17:39:53;;;;;;;;;;;;;;;3.47;100.00;99875.44;4975794;28;19926;-79
2021/10/15 17:42:18;;;;;;;;;;;;;;;3.48;100.00;99873.69;4975087;28;19952;-80
2021/10/15 17:44:43;;;;;;;;;;;;;;;3.53;100.00;99875.38;4958456;28;20425;-80
2021/10/15 17:47:08;;;;;;;;;;;;;;;3.51;100.00;99881.50;4955392;28;20357;-79
2021/10/15 17:49:34;;;;;;;;;;;;;;;3.56;100.00;99877.09;4975122;28;19929;-80
2021/10/15 17:52:05;;;;;;;;;;;;;;;3.54;100.00;99889.34;4973850;28;20016;-79
2021/10/15 17:54:30;;;;;;;;;;;;;;;3.59;100.00;99892.75;4974305;28;20057;-80
2021/10/15 17:56:55;;;;;;;;;;;;;;;3.60;100.00;99891.88;4975595;28;20012;-79
2021/10/15 17:59:20;;;;;;;;;;;;;;;3.62;100.00;99885.75;4975471;28;19922;-79
2021/10/15 18:01:46;;;;;;;;;;;;;;;3.63;100.00;99891.84;4957544;28;20807;-80
2021/10/15 18:04:11;;;;;;;;;;;;;;;3.66;100.00;99907.53;4975097;28;19918;-79
2021/10/15 18:06:37;;;;;;;;;;;;;;;3.68;100.00;99900.50;4957929;28;19926;-81
2021/10/15 18:09:02;;;;;;;;;;;;;;;3.69;100.00;99904.88;4973617;28;19922;-80
2021/10/15 18:11:27;;;;;;;;;;;;;;;3.71;100.00;99897.84;4958214;28;19931;-80
2021/10/15 18:13:52;;;;;;;;;;;;;;;3.71;100.00;99905.72;4958031;28;19965;-80
2021/10/15 18:16:18;;;;;;;;;;;;;;;3.75;100.00;99906.53;4958075;28;19926;-79
2021/10/15 18:18:43;;;;;;;;;;;;;;;3.75;100.00;99903.91;4973242;28;20290;-80
2021/10/15 18:21:09;;;;;;;;;;;;;;;3.80;100.00;99904.75;4975523;28;19933;-80
2021/10/15 18:23:34;;;;;;;;;;;;;;;3.84;100.00;99908.19;4974211;28;20393;-79
2021/10/15 18:25:59;;;;;;;;;;;;;;;3.84;100.00;99910.78;4975185;28;19956;-79
2021/10/15 18:28:26;;;;;;;;;;;;;;;3.92;100.00;99907.16;4975313;28;20388;-79
2021/10/15 18:30:51;;;;;;;;;;;;;;;3.92;100.00;99911.56;4974662;28;19925;-79
2021/10/15 18:33:16;;;;;;;;;;;;;;;3.95;100.00;99916.75;4974492;28;19995;-80
2021/10/15 18:35:42;;;;;;;;;;;;;;;3.96;100.00;99921.13;4957593;28;19922;-80
2021/10/15 18:38:07;;;;;;;;;;;;;;;3.94;100.00;99925.50;4969601;28;19918;-79
2021/10/15 18:40:32;;;;;;;;;;;;;;;4.00;100.00;99922.81;4972798;28;19929;-80
2021/10/15 18:42:57;;;;;;;;;;;;;;;3.97;100.00;99928.97;4970994;28;19918;-79
2021/10/15 18:45:23;;;;;;;;;;;;;;;4.06;100.00;99933.22;4956859;28;20374;-80
2021/10/15 18:47:48;;;;;;;;;;;;;;;4.08;100.00;99931.41;4957384;28;19948;-80
2021/10/15 18:50:13;;;;;;;;;;;;;;;4.11;99.84;99935.78;4972905;28;20377;-79
2021/10/15 18:52:39;;;;;;;;;;;;;;;4.18;99.61;99942.69;4972922;28;20056;-80